• Join FlightAware (Why Join?)
  • Login
  • US Flag 
Gobble Gobble! 
06:05PM EST


 

Airport Tracker/Info


-or-


 

Live Flight TrackerFlight Track Log ✈ KLM1072 ✈ 10-Jul-2013 ✈ EGCC / MAN - EHAM / AMS

Flight Track Log - Related Links

Times and Time Zones

All times are in EDT time to prevent confusion due to time zone crossing. See the KLM1072 flight status page for this flight to view local times or setup timezone preferences in your user account.

Time Position Orientation Groundspeed Altitude Reporting Facility
EDT Latitude Longitude Course Direction KTS MPH feet Rate Location/Type
01:07AM 53.2226 -1.1891 101° East  Level Estimated
01:08AM 53.2121 -1.1059 102° East  Level Estimated
01:09AM 53.2016 -1.0227 102° East  Level Estimated
01:10AM 53.1910 -0.9395 102° East  Level Estimated
01:11AM 53.1803 -0.8564 102° East  Level Estimated
01:12AM 53.1696 -0.7733 102° East  Level Estimated
01:13AM 53.1588 -0.6903 102° East  Level Estimated
01:14AM 53.1480 -0.6073 102° East  Level Estimated
01:15AM 53.1371 -0.5243 102° East  Level Estimated
01:16AM 53.1261 -0.4414 102° East  Level Estimated
01:17AM 53.1151 -0.3586 102° East  Level Estimated
01:18AM 53.1040 -0.2757 103° East  Level Estimated
01:19AM 53.0929 -0.1929 103° East  Level Estimated
01:20AM 53.0817 -0.1102 103° East  Level Estimated
01:21AM 53.0705 -0.0275 103° East  Level Estimated
01:22AM 53.0592 0.0552 103° East  Level Estimated
01:23AM 53.0478 0.1378 103° East  Level Estimated
01:24AM 53.0364 0.2203 103° East  Level Estimated
01:25AM 53.0249 0.3029 103° East  Level Estimated
01:26AM 53.0134 0.3853 103° East  Level Estimated
01:27AM 53.0018 0.4678 103° East  Level Estimated
01:28AM 52.9902 0.5502 103° East  Level Estimated
01:29AM 52.9704 0.6890 103° East  Level Estimated
01:30AM 52.9505 0.8277 103° East  Level Estimated
01:31AM 52.9304 0.9663 103° East  Level Estimated
01:32AM 52.9101 1.1048 104° East  Level Estimated
01:33AM 52.8897 1.2431 104° East  Level Estimated
01:34AM 52.8691 1.3813 104° East  Level Estimated
01:35AM 52.8484 1.5193 104° East  Level Estimated
01:36AM 52.8275 1.6573 104° East  Level Estimated
01:37AM 52.8065 1.7950 104° East  Level Estimated
01:38AM 52.7853 1.9327 104° East  Level Estimated
01:39AM 52.7639 2.0702 104° East  Level Estimated
01:40AM 52.7424 2.2076 104° East  Level Estimated
01:41AM 52.7207 2.3449 105° East  Level Estimated
01:42AM 52.6989 2.4820 105° East  Level Estimated
01:43AM 52.6769 2.6190 105° East  Level Estimated
01:44AM 52.6547 2.7558 105° East  Level Estimated
01:45AM 52.6324 2.8925 105° East  Level Estimated
01:46AM 52.6099 3.0291 105° East  Level Estimated
01:47AM 52.5873 3.1655 105° East  Level Estimated
01:48AM 52.5645 3.3018 105° East  Level Estimated
01:49AM 52.5416 3.4379 105° East  Level Estimated
01:50AM 52.5185 3.5739 106° East  Level Estimated
01:51AM 52.4957 3.7071 106° East  Level Estimated
01:52AM 52.4727 3.8402 106° East  Level Estimated
01:53AM 52.4496 3.9732 106° East  Level Estimated
01:54AM 52.4264 4.1060 106° East  Level Estimated
01:55AM 52.4030 4.2387 106° East  Level Estimated
01:56AM 52.3794 4.3712 106° East  Level Estimated
01:57AM 52.3557 4.5036 106° East  Level Estimated
01:58AM 52.3319 4.6359 106° East  Level Estimated
01:59AM 52.3086 4.7639 106° East  Level Estimated
02:00AM 52.3086 4.7639 348° North  Level Estimated
02:01AM 52.3086 4.7639 348° North  Level Estimated
02:02AM 52.3086 4.7639 348° North  Level Estimated